createdAt,value
2023-02-13T00:01:30.318Z,97844
2023-02-13T00:02:30.429Z,97847
2023-02-13T00:03:30.399Z,97844
2023-02-13T00:04:30.397Z,97844
2023-02-13T00:05:30.310Z,97844
2023-02-13T00:06:30.364Z,97843
2023-02-13T00:07:30.424Z,97845
2023-02-13T00:09:30.395Z,97846
2023-02-13T00:10:30.366Z,97846
2023-02-13T00:11:30.365Z,97847
2023-02-13T00:12:30.433Z,97845
2023-02-13T00:13:30.410Z,97843
2023-02-13T00:14:30.358Z,97843
2023-02-13T00:16:30.355Z,97849
2023-02-13T00:18:30.361Z,97842
2023-02-13T00:19:30.446Z,97847
2023-02-13T00:20:30.386Z,97847
2023-02-13T00:21:30.408Z,97846
2023-02-13T00:22:30.415Z,97848
2023-02-13T00:24:30.398Z,97847
2023-02-13T00:25:30.398Z,97847
2023-02-13T00:26:30.430Z,97848
2023-02-13T00:28:30.447Z,97845
2023-02-13T00:29:30.412Z,97847
2023-02-13T00:30:34.798Z,97850
2023-02-13T00:31:31.570Z,97849
2023-02-13T00:32:30.406Z,97850
2023-02-13T00:33:30.470Z,97848
2023-02-13T00:36:31.657Z,97853
2023-02-13T00:37:30.400Z,97853
2023-02-13T00:38:30.426Z,97859
2023-02-13T00:39:30.488Z,97858
2023-02-13T00:41:30.456Z,97857
2023-02-13T00:46:30.515Z,97854
2023-02-13T00:47:30.477Z,97857
2023-02-13T00:48:30.539Z,97856
2023-02-13T00:49:30.513Z,97856
2023-02-13T00:51:31.593Z,97857
2023-02-13T00:53:31.724Z,97858
2023-02-13T00:54:30.483Z,97859
2023-02-13T00:56:31.697Z,97858
2023-02-13T00:59:30.445Z,97859
2023-02-13T01:00:30.465Z,97856
2023-02-13T01:01:30.492Z,97857
2023-02-13T01:03:31.950Z,97858
2023-02-13T01:05:30.482Z,97857
2023-02-13T01:06:30.491Z,97859
2023-02-13T01:07:35.182Z,97860
2023-02-13T01:08:30.497Z,97857
2023-02-13T01:10:30.492Z,97858
2023-02-13T01:11:30.526Z,97859
2023-02-13T01:12:30.496Z,97859
2023-02-13T01:13:30.459Z,97860
2023-02-13T01:14:30.498Z,97860
2023-02-13T01:15:30.515Z,97862
2023-02-13T01:16:30.538Z,97861
2023-02-13T01:17:30.506Z,97858
2023-02-13T01:18:30.513Z,97862
2023-02-13T01:19:30.501Z,97862
2023-02-13T01:20:30.492Z,97864
2023-02-13T01:21:30.553Z,97864
2023-02-13T01:22:30.485Z,97865
2023-02-13T01:23:30.524Z,97863
2023-02-13T01:24:30.522Z,97863
2023-02-13T01:25:30.547Z,97861
2023-02-13T01:26:30.560Z,97862
2023-02-13T01:27:30.496Z,97862
2023-02-13T01:29:30.502Z,97860
2023-02-13T01:30:30.538Z,97860
2023-02-13T01:33:30.566Z,97863
2023-02-13T01:34:30.583Z,97865
2023-02-13T01:35:30.559Z,97862
2023-02-13T01:36:30.522Z,97863
2023-02-13T01:37:30.562Z,97866
2023-02-13T01:38:30.530Z,97866
2023-02-13T01:40:30.543Z,97867
2023-02-13T01:41:30.538Z,97868
2023-02-13T01:43:30.575Z,97864
2023-02-13T01:44:35.576Z,97867
2023-02-13T01:45:30.584Z,97867
2023-02-13T01:47:30.592Z,97866
2023-02-13T01:48:32.376Z,97866
2023-02-13T01:51:30.614Z,97868
2023-02-13T01:52:30.551Z,97865
2023-02-13T01:55:30.564Z,97868
2023-02-13T01:56:30.612Z,97867
2023-02-13T01:57:30.640Z,97868
2023-02-13T01:58:30.655Z,97869
2023-02-13T01:59:30.656Z,97871
2023-02-13T02:00:30.577Z,97873
2023-02-13T02:01:30.628Z,97873
2023-02-13T02:02:30.664Z,97873
2023-02-13T02:03:30.626Z,97871
2023-02-13T02:05:30.655Z,97871
2023-02-13T02:06:30.634Z,97874
2023-02-13T02:07:30.580Z,97873
2023-02-13T02:08:30.602Z,97870
2023-02-13T02:09:30.626Z,97873
2023-02-13T02:11:30.622Z,97875
2023-02-13T02:12:30.666Z,97872
2023-02-13T02:13:30.626Z,97872
2023-02-13T02:14:30.684Z,97873
2023-02-13T02:16:30.604Z,97870
2023-02-13T02:18:30.974Z,97872
2023-02-13T02:19:30.644Z,97871
2023-02-13T02:20:30.680Z,97871
2023-02-13T02:22:30.651Z,97874
2023-02-13T02:23:30.651Z,97874
2023-02-13T02:25:30.710Z,97875
2023-02-13T02:26:30.682Z,97873
2023-02-13T02:27:30.699Z,97875
2023-02-13T02:28:30.771Z,97873
2023-02-13T02:29:30.695Z,97874
2023-02-13T02:32:30.693Z,97878
2023-02-13T02:33:30.714Z,97875
2023-02-13T02:34:30.691Z,97875
2023-02-13T02:35:30.729Z,97876
2023-02-13T02:36:30.883Z,97879
2023-02-13T02:37:30.727Z,97876
2023-02-13T02:38:30.705Z,97878
2023-02-13T02:39:30.705Z,97878
2023-02-13T02:40:30.748Z,97877
2023-02-13T02:42:30.713Z,97872
2023-02-13T02:43:30.747Z,97873
2023-02-13T02:44:30.717Z,97873
2023-02-13T02:45:30.757Z,97875
2023-02-13T02:46:30.765Z,97875
2023-02-13T02:47:30.682Z,97877
2023-02-13T02:48:30.761Z,97875
2023-02-13T02:49:30.702Z,97873
2023-02-13T02:50:30.693Z,97873
2023-02-13T02:51:30.728Z,97877
2023-02-13T02:52:30.706Z,97876
2023-02-13T02:53:30.761Z,97883
2023-02-13T02:54:30.760Z,97885
2023-02-13T02:58:30.795Z,97886
2023-02-13T02:59:30.714Z,97886
2023-02-13T03:00:30.792Z,97886
2023-02-13T03:01:30.765Z,97886
2023-02-13T03:02:30.752Z,97884
2023-02-13T03:04:30.881Z,97884
2023-02-13T03:05:30.749Z,97884
2023-02-13T03:07:30.764Z,97883
2023-02-13T03:08:30.772Z,97883
2023-02-13T03:10:30.776Z,97887
2023-02-13T03:11:30.823Z,97885
2023-02-13T03:12:30.768Z,97885
2023-02-13T03:13:30.773Z,97886
2023-02-13T03:14:30.783Z,97889
2023-02-13T03:15:30.785Z,97891
2023-02-13T03:16:30.856Z,97887
2023-02-13T03:17:30.816Z,97891
2023-02-13T03:18:30.780Z,97889
2023-02-13T03:19:30.795Z,97890
2023-02-13T03:20:30.801Z,97889
2023-02-13T03:21:30.799Z,97890
2023-02-13T03:22:30.798Z,97892
2023-02-13T03:23:30.774Z,97892
2023-02-13T03:24:30.840Z,97893
2023-02-13T03:25:30.808Z,97889
2023-02-13T03:26:30.769Z,97892
2023-02-13T03:27:30.806Z,97892
2023-02-13T03:28:30.808Z,97889
2023-02-13T03:29:30.862Z,97891
2023-02-13T03:30:30.824Z,97894
2023-02-13T03:32:31.724Z,97893
2023-02-13T03:33:30.859Z,97895
2023-02-13T03:34:30.858Z,97895
2023-02-13T03:35:30.829Z,97895
2023-02-13T03:37:30.838Z,97893
2023-02-13T03:38:30.844Z,97896
2023-02-13T03:40:30.844Z,97896
2023-02-13T03:42:30.834Z,97895
2023-02-13T03:43:30.847Z,97895
2023-02-13T03:44:30.893Z,97899
2023-02-13T03:45:30.876Z,97897
2023-02-13T03:46:30.829Z,97900
2023-02-13T03:47:30.856Z,97900
2023-02-13T03:48:30.872Z,97902
2023-02-13T03:50:30.874Z,97908
2023-02-13T03:51:30.840Z,97908
2023-02-13T03:52:30.869Z,97912
2023-02-13T03:53:30.837Z,97911
2023-02-13T03:54:30.910Z,97910
2023-02-13T03:55:30.879Z,97914
2023-02-13T03:56:30.883Z,97915
2023-02-13T03:57:30.881Z,97915
2023-02-13T03:58:30.902Z,97918
2023-02-13T04:00:30.896Z,97922
2023-02-13T04:01:30.932Z,97922
2023-02-13T04:02:30.955Z,97921
2023-02-13T04:03:30.903Z,97921
2023-02-13T04:04:30.893Z,97922
2023-02-13T04:05:30.908Z,97922
2023-02-13T04:07:30.960Z,97922
2023-02-13T04:08:30.902Z,97922
2023-02-13T04:09:32.075Z,97922
2023-02-13T04:10:30.921Z,97922
2023-02-13T04:11:30.927Z,97920
2023-02-13T04:12:30.972Z,97923
2023-02-13T04:13:30.924Z,97923
2023-02-13T04:14:30.927Z,97926
2023-02-13T04:15:30.934Z,97927
2023-02-13T04:16:30.968Z,97926
2023-02-13T04:17:30.971Z,97926
2023-02-13T04:18:30.939Z,97929
2023-02-13T04:19:30.956Z,97929
2023-02-13T04:20:30.965Z,97925
2023-02-13T04:21:30.942Z,97926
2023-02-13T04:22:30.975Z,97926
2023-02-13T04:25:30.916Z,97928
2023-02-13T04:26:30.965Z,97922
2023-02-13T04:27:30.990Z,97925
2023-02-13T04:28:31.004Z,97926
2023-02-13T04:29:30.942Z,97923
2023-02-13T04:32:30.970Z,97926
2023-02-13T04:34:30.934Z,97922
2023-02-13T04:35:30.998Z,97927
2023-02-13T04:36:30.981Z,97926
2023-02-13T04:38:30.955Z,97923
2023-02-13T04:39:30.957Z,97923
2023-02-13T04:42:30.956Z,97920
2023-02-13T04:43:31.016Z,97924
2023-02-13T04:44:30.998Z,97918
2023-02-13T04:47:30.968Z,97924
2023-02-13T04:49:31.012Z,97922
2023-02-13T04:50:31.045Z,97923
2023-02-13T04:51:31.014Z,97923
2023-02-13T04:52:31.026Z,97925
2023-02-13T04:53:31.025Z,97925
2023-02-13T04:54:31.044Z,97929
2023-02-13T04:55:31.058Z,97929
2023-02-13T04:56:31.022Z,97929
2023-02-13T04:57:31.025Z,97930
2023-02-13T04:58:31.027Z,97927
2023-02-13T04:59:31.001Z,97926
2023-02-13T05:00:31.083Z,97925
2023-02-13T05:01:31.092Z,97926
2023-02-13T05:02:31.057Z,97926
2023-02-13T05:03:31.013Z,97925
2023-02-13T05:04:31.077Z,97930
2023-02-13T05:05:31.078Z,97928
2023-02-13T05:06:31.071Z,97926
2023-02-13T05:07:31.048Z,97926
2023-02-13T05:08:31.066Z,97934
2023-02-13T05:09:31.060Z,97928
2023-02-13T05:10:31.095Z,97930
2023-02-13T05:11:31.053Z,97930
2023-02-13T05:12:31.038Z,97934
2023-02-13T05:13:31.090Z,97928
2023-02-13T05:14:31.071Z,97932
2023-02-13T05:15:31.141Z,97932
2023-02-13T05:16:31.104Z,97935
2023-02-13T05:17:31.032Z,97935
2023-02-13T05:18:31.116Z,97935
2023-02-13T05:19:31.084Z,97935
2023-02-13T05:20:31.045Z,97933
2023-02-13T05:21:31.085Z,97933
2023-02-13T05:22:31.088Z,97934
2023-02-13T05:23:32.880Z,97933
2023-02-13T05:24:31.059Z,97934
2023-02-13T05:25:31.089Z,97934
2023-02-13T05:26:31.104Z,97935
2023-02-13T05:27:31.120Z,97935
2023-02-13T05:28:31.172Z,97935
2023-02-13T05:29:31.120Z,97932
2023-02-13T05:30:31.069Z,97932
2023-02-13T05:31:31.185Z,97932
2023-02-13T05:32:31.076Z,97938
2023-02-13T05:33:31.141Z,97937
2023-02-13T05:34:31.120Z,97938
2023-02-13T05:36:31.155Z,97937
2023-02-13T05:37:31.125Z,97937
2023-02-13T05:38:31.087Z,97939
2023-02-13T05:39:31.122Z,97936
2023-02-13T05:41:31.174Z,97939
2023-02-13T05:42:31.112Z,97937
2023-02-13T05:43:31.110Z,97937
2023-02-13T05:44:31.212Z,97938
2023-02-13T05:45:31.155Z,97934
2023-02-13T05:46:31.142Z,97938
2023-02-13T05:47:31.169Z,97931
2023-02-13T05:48:31.136Z,97935
2023-02-13T05:50:31.132Z,97936
2023-02-13T05:51:31.161Z,97937
2023-02-13T05:52:31.155Z,97937
2023-02-13T05:53:31.172Z,97941
2023-02-13T05:54:31.218Z,97938
2023-02-13T05:55:31.131Z,97939
2023-02-13T05:56:31.148Z,97942
2023-02-13T05:58:31.190Z,97940
2023-02-13T05:59:31.150Z,97940
2023-02-13T06:00:33.275Z,97941
2023-02-13T06:01:31.165Z,97938
2023-02-13T06:04:31.189Z,97940
2023-02-13T06:05:31.153Z,97940
2023-02-13T06:06:31.208Z,97942
2023-02-13T06:07:31.184Z,97943
2023-02-13T06:08:31.160Z,97942
2023-02-13T06:09:31.206Z,97943
2023-02-13T06:10:31.211Z,97945
2023-02-13T06:11:31.223Z,97945
2023-02-13T06:12:31.228Z,97949
2023-02-13T06:13:31.208Z,97949
2023-02-13T06:14:31.176Z,97944
2023-02-13T06:15:31.175Z,97950
2023-02-13T06:17:31.220Z,97953
2023-02-13T06:18:31.235Z,97953
2023-02-13T06:19:31.219Z,97951
2023-02-13T06:20:31.229Z,97951
2023-02-13T06:21:31.230Z,97950
2023-02-13T06:22:31.194Z,97950
2023-02-13T06:23:31.226Z,97951
2023-02-13T06:24:31.249Z,97953
2023-02-13T06:25:31.240Z,97954
2023-02-13T06:26:31.203Z,97954
2023-02-13T06:27:31.202Z,97953
2023-02-13T06:28:31.330Z,97953
2023-02-13T06:29:31.248Z,97957
2023-02-13T06:30:31.323Z,97959
2023-02-13T06:31:31.236Z,97962
2023-02-13T06:32:31.219Z,97962
2023-02-13T06:33:31.258Z,97963
2023-02-13T06:34:31.234Z,97963
2023-02-13T06:35:31.347Z,97962
2023-02-13T06:36:31.230Z,97967
2023-02-13T06:37:33.728Z,97959
2023-02-13T06:38:31.232Z,97966
2023-02-13T06:39:31.275Z,97963
2023-02-13T06:40:31.311Z,97962
2023-02-13T06:41:31.265Z,97966
2023-02-13T06:42:31.280Z,97967
2023-02-13T06:43:31.255Z,97961
2023-02-13T06:44:31.241Z,97961
2023-02-13T06:45:31.308Z,97970
2023-02-13T06:46:31.306Z,97970
2023-02-13T06:47:31.264Z,97968
2023-02-13T06:48:31.258Z,97972
2023-02-13T06:49:31.254Z,97972
2023-02-13T06:50:31.336Z,97975
2023-02-13T06:51:31.306Z,97976
2023-02-13T06:52:31.334Z,97981
2023-02-13T06:53:31.328Z,97979
2023-02-13T06:54:46.277Z,97983
2023-02-13T06:55:31.344Z,97981
2023-02-13T06:56:31.307Z,97981
2023-02-13T06:57:31.318Z,97981
2023-02-13T06:59:31.356Z,97983
2023-02-13T07:00:31.376Z,97981
2023-02-13T07:01:31.285Z,97981
2023-02-13T07:02:31.381Z,97983
2023-02-13T07:03:31.376Z,97986
2023-02-13T07:04:31.338Z,97984
2023-02-13T07:05:31.481Z,97982
2023-02-13T07:06:32.973Z,97985
2023-02-13T07:07:31.338Z,97985
2023-02-13T07:09:31.305Z,97986
2023-02-13T07:10:31.348Z,97985
2023-02-13T07:11:31.556Z,97987
2023-02-13T07:12:31.350Z,97986
2023-02-13T07:13:31.372Z,97984
2023-02-13T07:14:34.314Z,97981
2023-02-13T07:15:31.363Z,97985
2023-02-13T07:16:31.404Z,97983
2023-02-13T07:18:31.393Z,97985
2023-02-13T07:19:31.346Z,97984
2023-02-13T07:20:31.346Z,97983
2023-02-13T07:21:31.368Z,97980
2023-02-13T07:23:31.349Z,97979
2023-02-13T07:24:31.411Z,97979
2023-02-13T07:25:31.398Z,97983
2023-02-13T07:26:31.427Z,97977
2023-02-13T07:27:31.368Z,97977
2023-02-13T07:28:31.522Z,97982
2023-02-13T07:29:31.389Z,97981
2023-02-13T07:30:32.873Z,97980
2023-02-13T07:31:31.507Z,97983
2023-02-13T07:32:31.424Z,97987
2023-02-13T07:33:31.406Z,97990
2023-02-13T07:34:31.375Z,97991
2023-02-13T07:35:31.415Z,97991
2023-02-13T07:36:31.416Z,97991
2023-02-13T07:37:31.488Z,97990
2023-02-13T07:38:31.474Z,97992
2023-02-13T07:39:31.430Z,97995
2023-02-13T07:40:31.425Z,97991
2023-02-13T07:41:31.492Z,97995
2023-02-13T07:42:31.405Z,97998
2023-02-13T07:43:31.430Z,97995
2023-02-13T07:44:31.433Z,97995
2023-02-13T07:45:31.422Z,97999
2023-02-13T07:46:31.515Z,97999
2023-02-13T07:47:31.917Z,97999
2023-02-13T07:48:31.441Z,98001
2023-02-13T07:49:31.472Z,98000
2023-02-13T07:50:31.426Z,97999
2023-02-13T07:51:34.730Z,98003
2023-02-13T07:52:31.451Z,98005
2023-02-13T07:54:31.515Z,98005
2023-02-13T07:55:31.459Z,98009
2023-02-13T07:56:31.421Z,98007
2023-02-13T07:58:31.434Z,98004
2023-02-13T07:59:31.534Z,98002
2023-02-13T08:01:31.531Z,98001
2023-02-13T08:02:31.431Z,98001
2023-02-13T08:03:31.468Z,98002
2023-02-13T08:04:31.444Z,98002
2023-02-13T08:05:31.449Z,98001
2023-02-13T08:06:31.490Z,97999
2023-02-13T08:07:31.488Z,98000
2023-02-13T08:08:31.463Z,98001
2023-02-13T08:09:31.495Z,97999
2023-02-13T08:10:31.505Z,98001
2023-02-13T08:11:31.506Z,98003
2023-02-13T08:12:31.510Z,98002
2023-02-13T08:13:31.514Z,98005
2023-02-13T08:14:31.494Z,98005
2023-02-13T08:15:31.473Z,98005
2023-02-13T08:16:31.556Z,98006
2023-02-13T08:17:31.544Z,98006
2023-02-13T08:18:31.517Z,98004
2023-02-13T08:19:31.531Z,98003
2023-02-13T08:20:31.533Z,98004
2023-02-13T08:21:31.519Z,98001
2023-02-13T08:22:31.529Z,98003
2023-02-13T08:23:31.650Z,97997
2023-02-13T08:24:31.489Z,98005
2023-02-13T08:25:31.526Z,98000
2023-02-13T08:26:31.484Z,98004
2023-02-13T08:27:31.517Z,98001
2023-02-13T08:28:35.140Z,98004
2023-02-13T08:29:31.547Z,97998
2023-02-13T08:30:31.586Z,98001
2023-02-13T08:31:31.760Z,98003
2023-02-13T08:32:39.314Z,98002
2023-02-13T08:33:31.561Z,98003
2023-02-13T08:34:31.542Z,98008
2023-02-13T08:35:31.519Z,98005
2023-02-13T08:36:31.523Z,98002
2023-02-13T08:37:31.516Z,98004
2023-02-13T08:38:31.565Z,98004
2023-02-13T08:39:31.575Z,98004
2023-02-13T08:40:31.566Z,98006
2023-02-13T08:41:31.561Z,98006
2023-02-13T08:42:31.535Z,98004
2023-02-13T08:43:31.596Z,98006
2023-02-13T08:44:31.580Z,98006
2023-02-13T08:45:31.602Z,98007
2023-02-13T08:46:31.643Z,98008
2023-02-13T08:47:31.591Z,98001
2023-02-13T08:48:31.590Z,98003
2023-02-13T08:49:31.586Z,98008
2023-02-13T08:50:31.543Z,98008
2023-02-13T08:51:31.595Z,98006
2023-02-13T08:52:31.590Z,98008
2023-02-13T08:53:31.592Z,98010
2023-02-13T08:54:31.566Z,98010
2023-02-13T08:55:31.597Z,98009
2023-02-13T08:56:31.600Z,98009
2023-02-13T08:57:31.568Z,98009
2023-02-13T08:58:31.606Z,98011
2023-02-13T08:59:31.569Z,98019
2023-02-13T09:00:31.623Z,98012
2023-02-13T09:01:31.630Z,98020
2023-02-13T09:02:31.638Z,98020
2023-02-13T09:03:31.630Z,98020
2023-02-13T09:04:31.676Z,98020
2023-02-13T09:05:35.471Z,98018
2023-02-13T09:06:31.609Z,98021
2023-02-13T09:07:31.644Z,98018
2023-02-13T09:09:31.628Z,98020
2023-02-13T09:10:31.648Z,98020
2023-02-13T09:11:31.633Z,98018
2023-02-13T09:12:31.643Z,98018
2023-02-13T09:13:31.647Z,98014
2023-02-13T09:14:31.645Z,98021
2023-02-13T09:15:31.669Z,98022
2023-02-13T09:16:31.716Z,98022
2023-02-13T09:17:31.646Z,98021
2023-02-13T09:18:31.654Z,98021
2023-02-13T09:19:31.658Z,98018
2023-02-13T09:20:31.631Z,98020
2023-02-13T09:21:31.695Z,98017
2023-02-13T09:22:31.684Z,98020
2023-02-13T09:23:31.656Z,98023
2023-02-13T09:24:31.715Z,98025
2023-02-13T09:25:31.678Z,98022
2023-02-13T09:26:31.646Z,98022
2023-02-13T09:27:31.679Z,98021
2023-02-13T09:28:31.753Z,98019
2023-02-13T09:29:31.786Z,98023
2023-02-13T09:30:31.708Z,98022
2023-02-13T09:31:31.828Z,98022
2023-02-13T09:32:31.697Z,98027
2023-02-13T09:33:31.657Z,98027
2023-02-13T09:34:31.664Z,98027
2023-02-13T09:35:31.654Z,98030
2023-02-13T09:36:31.684Z,98029
2023-02-13T09:37:31.752Z,98028
2023-02-13T09:38:31.666Z,98029
2023-02-13T09:39:31.723Z,98028
2023-02-13T09:40:31.715Z,98028
2023-02-13T09:41:31.784Z,98025
2023-02-13T09:42:35.772Z,98028
2023-02-13T09:43:31.679Z,98024
2023-02-13T09:44:31.723Z,98022
2023-02-13T09:45:31.770Z,98022
2023-02-13T09:46:31.767Z,98027
2023-02-13T09:47:31.694Z,98028
2023-02-13T09:48:31.709Z,98028
2023-02-13T09:49:31.709Z,98028
2023-02-13T09:50:31.759Z,98028
2023-02-13T09:51:31.750Z,98028
2023-02-13T09:52:31.742Z,98026
2023-02-13T09:53:31.753Z,98028
2023-02-13T09:54:31.747Z,98028
2023-02-13T09:55:31.758Z,98029
2023-02-13T09:56:31.721Z,98030
2023-02-13T09:57:31.758Z,98031
2023-02-13T09:58:31.795Z,98029
2023-02-13T09:59:31.728Z,98028
2023-02-13T10:00:31.723Z,98026
2023-02-13T10:01:31.781Z,98026
2023-02-13T10:02:31.757Z,98026
2023-02-13T10:03:31.772Z,98027
2023-02-13T10:04:31.927Z,98025
2023-02-13T10:05:31.752Z,98025
2023-02-13T10:06:31.771Z,98025
2023-02-13T10:07:31.743Z,98029
2023-02-13T10:08:31.743Z,98029
2023-02-13T10:09:31.790Z,98030
2023-02-13T10:10:31.773Z,98030
2023-02-13T10:11:31.793Z,98033
2023-02-13T10:13:31.801Z,98033
2023-02-13T10:14:32.870Z,98031
2023-02-13T10:15:31.868Z,98031
2023-02-13T10:16:31.817Z,98029
2023-02-13T10:17:31.794Z,98029
2023-02-13T10:18:31.776Z,98035
2023-02-13T10:19:36.210Z,98028
2023-02-13T10:20:31.814Z,98026
2023-02-13T10:21:31.821Z,98032
2023-02-13T10:22:31.784Z,98030
2023-02-13T10:23:31.833Z,98027
2023-02-13T10:25:31.826Z,98029
2023-02-13T10:26:31.783Z,98032
2023-02-13T10:27:31.843Z,98026
2023-02-13T10:28:31.893Z,98027
2023-02-13T10:29:31.795Z,98027
2023-02-13T10:30:31.857Z,98023
2023-02-13T10:31:35.039Z,98025
2023-02-13T10:32:31.808Z,98025
2023-02-13T10:33:33.160Z,98023
2023-02-13T10:34:31.831Z,98026
2023-02-13T10:35:31.845Z,98024
2023-02-13T10:37:31.878Z,98021
2023-02-13T10:38:31.859Z,98022
2023-02-13T10:39:31.841Z,98019
2023-02-13T10:40:31.818Z,98016
2023-02-13T10:41:31.880Z,98017
2023-02-13T10:42:31.834Z,98014
2023-02-13T10:43:31.913Z,98014
2023-02-13T10:44:31.886Z,98013
2023-02-13T10:45:31.877Z,98012
2023-02-13T10:46:32.002Z,98012
2023-02-13T10:47:31.862Z,98013
2023-02-13T10:48:31.847Z,98008
2023-02-13T10:49:31.901Z,98011
2023-02-13T10:50:31.907Z,98009
2023-02-13T10:51:31.879Z,98008
2023-02-13T10:52:31.880Z,98004
2023-02-13T10:53:31.847Z,98004
2023-02-13T10:54:31.873Z,98009
2023-02-13T10:56:36.590Z,98004
2023-02-13T10:57:31.855Z,98004
2023-02-13T10:58:31.864Z,98001
2023-02-13T10:59:31.914Z,98000
2023-02-13T11:00:31.930Z,97996
2023-02-13T11:01:32.056Z,97996
2023-02-13T11:02:31.927Z,97994
2023-02-13T11:03:31.924Z,97994
2023-02-13T11:04:31.961Z,97992
2023-02-13T11:05:31.880Z,97993
2023-02-13T11:06:31.931Z,97989
2023-02-13T11:09:31.936Z,97991
2023-02-13T11:11:31.904Z,97988
2023-02-13T11:12:31.932Z,97991
2023-02-13T11:13:31.903Z,97991
2023-02-13T11:14:31.927Z,97993
2023-02-13T11:15:31.941Z,97991
2023-02-13T11:16:33.123Z,97988
2023-02-13T11:17:31.933Z,97990
2023-02-13T11:18:31.941Z,97990
2023-02-13T11:19:31.963Z,97985
2023-02-13T11:20:32.085Z,97985
2023-02-13T11:21:31.954Z,97982
2023-02-13T11:22:31.977Z,97985
2023-02-13T11:23:31.954Z,97981
2023-02-13T11:24:31.981Z,97985
2023-02-13T11:25:31.962Z,97982
2023-02-13T11:26:31.938Z,97980
2023-02-13T11:27:31.964Z,97981
2023-02-13T11:28:31.983Z,97980
2023-02-13T11:29:31.938Z,97982
2023-02-13T11:30:31.952Z,97983
2023-02-13T11:31:32.062Z,97982
2023-02-13T11:33:36.941Z,97983
2023-02-13T11:34:31.976Z,97984
2023-02-13T11:35:31.977Z,97980
2023-02-13T11:36:32.001Z,97983
2023-02-13T11:40:31.965Z,97980
2023-02-13T11:41:31.996Z,97978
2023-02-13T11:43:32.025Z,97982
2023-02-13T11:44:32.013Z,97980
2023-02-13T11:46:32.073Z,97976
2023-02-13T11:47:32.024Z,97974
2023-02-13T11:48:32.001Z,97983
2023-02-13T11:49:32.002Z,97978
2023-02-13T11:50:32.026Z,97978
2023-02-13T11:51:32.012Z,97975
2023-02-13T11:52:31.997Z,97975
2023-02-13T11:53:31.993Z,97974
2023-02-13T11:54:31.996Z,97976
2023-02-13T11:55:32.085Z,97974
2023-02-13T11:56:32.040Z,97973
2023-02-13T11:57:32.039Z,97972
2023-02-13T11:58:32.163Z,97976
2023-02-13T11:59:32.047Z,97975
2023-02-13T12:00:32.098Z,97972
2023-02-13T12:01:32.017Z,97971
2023-02-13T12:02:32.080Z,97972
2023-02-13T12:03:32.147Z,97970
2023-02-13T12:04:32.059Z,97970
2023-02-13T12:05:32.049Z,97969
2023-02-13T12:06:34.083Z,97968
2023-02-13T12:07:32.372Z,97964
2023-02-13T12:08:32.080Z,97965
2023-02-13T12:09:32.087Z,97963
2023-02-13T12:10:32.057Z,97963
2023-02-13T12:11:32.084Z,97966
2023-02-13T12:12:32.092Z,97966
2023-02-13T12:13:32.039Z,97960
2023-02-13T12:14:32.058Z,97961
2023-02-13T12:15:32.121Z,97958
2023-02-13T12:16:32.080Z,97957
2023-02-13T12:17:32.714Z,97959
2023-02-13T12:18:32.103Z,97954
2023-02-13T12:19:32.118Z,97948
2023-02-13T12:20:32.150Z,97948
2023-02-13T12:22:33.960Z,97949
2023-02-13T12:23:32.056Z,97951
2023-02-13T12:26:32.110Z,97949
2023-02-13T12:27:32.119Z,97948
2023-02-13T12:29:33.580Z,97944
2023-02-13T12:30:32.185Z,97941
2023-02-13T12:31:32.138Z,97937
2023-02-13T12:32:32.136Z,97932
2023-02-13T12:33:32.096Z,97932
2023-02-13T12:34:32.149Z,97932
2023-02-13T12:35:32.161Z,97936
2023-02-13T12:36:32.112Z,97933
2023-02-13T12:37:32.092Z,97932
2023-02-13T12:38:32.148Z,97936
2023-02-13T12:39:32.101Z,97932
2023-02-13T12:40:32.184Z,97933
2023-02-13T12:41:32.156Z,97929
2023-02-13T12:42:32.140Z,97927
2023-02-13T12:43:32.154Z,97926
2023-02-13T12:44:32.643Z,97925
2023-02-13T12:45:32.138Z,97927
2023-02-13T12:46:32.147Z,97923
2023-02-13T12:47:32.164Z,97927
2023-02-13T12:48:32.196Z,97927
2023-02-13T12:50:32.153Z,97922
2023-02-13T12:51:32.139Z,97925
2023-02-13T12:53:32.175Z,97925
2023-02-13T12:55:32.184Z,97924
2023-02-13T12:56:32.196Z,97925
2023-02-13T12:57:32.155Z,97928
2023-02-13T12:59:32.196Z,97924
2023-02-13T13:00:32.209Z,97921
2023-02-13T13:01:32.259Z,97918
2023-02-13T13:03:32.214Z,97920
2023-02-13T13:04:32.171Z,97916
2023-02-13T13:05:32.161Z,97918
2023-02-13T13:06:32.220Z,97917
2023-02-13T13:07:32.186Z,97914
2023-02-13T13:08:32.190Z,97913
2023-02-13T13:09:32.241Z,97911
2023-02-13T13:10:32.237Z,97910
2023-02-13T13:13:32.244Z,97909
2023-02-13T13:14:32.231Z,97906
2023-02-13T13:15:32.236Z,97905
2023-02-13T13:16:32.284Z,97905
2023-02-13T13:17:32.237Z,97904
2023-02-13T13:18:32.323Z,97901
2023-02-13T13:19:32.260Z,97901
2023-02-13T13:20:32.286Z,97903
2023-02-13T13:21:33.021Z,97896
2023-02-13T13:22:32.216Z,97895
2023-02-13T13:23:32.277Z,97895
2023-02-13T13:24:32.268Z,97893
2023-02-13T13:25:32.268Z,97893
2023-02-13T13:26:32.298Z,97890
2023-02-13T13:27:32.216Z,97890
2023-02-13T13:28:32.267Z,97892
2023-02-13T13:29:32.272Z,97891
2023-02-13T13:30:34.528Z,97888
2023-02-13T13:31:32.472Z,97887
2023-02-13T13:32:32.250Z,97884
2023-02-13T13:33:32.301Z,97882
2023-02-13T13:34:32.235Z,97881
2023-02-13T13:35:32.283Z,97879
2023-02-13T13:37:32.298Z,97877
2023-02-13T13:38:32.259Z,97875
2023-02-13T13:39:32.265Z,97874
2023-02-13T13:40:32.299Z,97874
2023-02-13T13:42:32.309Z,97876
2023-02-13T13:43:32.300Z,97873
2023-02-13T13:45:32.324Z,97872
2023-02-13T13:46:32.344Z,97872
2023-02-13T13:47:32.304Z,97871
2023-02-13T13:48:32.276Z,97874
2023-02-13T13:49:32.335Z,97875
2023-02-13T13:50:32.310Z,97872
2023-02-13T13:51:32.314Z,97872
2023-02-13T13:52:32.315Z,97872
2023-02-13T13:53:32.304Z,97873
2023-02-13T13:54:32.319Z,97869
2023-02-13T13:55:32.309Z,97873
2023-02-13T13:56:32.331Z,97871
2023-02-13T13:57:32.375Z,97869
2023-02-13T13:58:33.398Z,97866
2023-02-13T13:59:32.340Z,97866
2023-02-13T14:00:32.357Z,97869
2023-02-13T14:01:32.388Z,97869
2023-02-13T14:02:32.435Z,97871
2023-02-13T14:03:32.314Z,97870
2023-02-13T14:04:32.358Z,97868
2023-02-13T14:05:32.375Z,97869
2023-02-13T14:07:32.400Z,97869
2023-02-13T14:08:32.338Z,97870
2023-02-13T14:09:32.331Z,97870
2023-02-13T14:10:32.336Z,97870
2023-02-13T14:11:32.362Z,97872
2023-02-13T14:12:32.410Z,97874
2023-02-13T14:13:32.339Z,97873
2023-02-13T14:14:32.343Z,97877
2023-02-13T14:15:32.394Z,97874
2023-02-13T14:16:32.348Z,97874
2023-02-13T14:17:32.380Z,97873
2023-02-13T14:18:32.345Z,97870
2023-02-13T14:19:32.363Z,97874
2023-02-13T14:20:32.408Z,97873
2023-02-13T14:21:32.397Z,97876
2023-02-13T14:22:32.393Z,97871
2023-02-13T14:24:32.381Z,97871
2023-02-13T14:25:32.373Z,97870
2023-02-13T14:26:32.393Z,97868
2023-02-13T14:28:32.374Z,97866
2023-02-13T14:29:32.377Z,97869
2023-02-13T14:30:32.396Z,97866
2023-02-13T14:31:32.485Z,97866
2023-02-13T14:32:32.383Z,97865
2023-02-13T14:33:32.415Z,97865
2023-02-13T14:34:32.370Z,97865
2023-02-13T14:35:33.791Z,97867
2023-02-13T14:36:32.424Z,97866
2023-02-13T14:37:32.389Z,97868
2023-02-13T14:38:32.391Z,97867
2023-02-13T14:39:32.427Z,97864
2023-02-13T14:41:32.612Z,97864
2023-02-13T14:42:32.446Z,97864